createdAt,value
2022-12-23T00:01:50.402Z,16.38
2022-12-23T00:04:18.869Z,17.52
2022-12-23T00:06:47.220Z,13.10
2022-12-23T00:09:15.611Z,13.32
2022-12-23T00:12:04.711Z,14.57
2022-12-23T00:14:52.368Z,17.60
2022-12-23T00:17:23.262Z,21.13
2022-12-23T00:19:52.458Z,27.90
2022-12-23T00:22:19.684Z,21.48
2022-12-23T00:24:48.088Z,19.45
2022-12-23T00:27:16.575Z,19.27
2022-12-23T00:29:45.010Z,20.50
2022-12-23T00:32:13.483Z,19.70
2022-12-23T00:34:41.871Z,18.48
2022-12-23T00:37:10.300Z,19.65
2022-12-23T00:40:05.888Z,19.30
2022-12-23T00:42:54.487Z,23.20
2022-12-23T00:45:24.411Z,22.15
2022-12-23T00:48:12.819Z,23.08
2022-12-23T00:50:42.731Z,19.27
2022-12-23T00:53:12.647Z,20.52
2022-12-23T00:55:42.460Z,19.52
2022-12-23T00:58:12.457Z,20.95
2022-12-23T01:01:03.110Z,20.58
2022-12-23T01:03:50.561Z,19.40
2022-12-23T01:06:20.732Z,17.42
2022-12-23T01:08:50.836Z,19.75
2022-12-23T01:11:20.897Z,17.63
2022-12-23T01:13:50.911Z,18.80
2022-12-23T01:16:21.101Z,16.63
2022-12-23T01:18:50.422Z,16.38
2022-12-23T01:21:17.915Z,17.98
2022-12-23T01:23:47.758Z,17.23
2022-12-23T01:26:17.477Z,16.13
2022-12-23T01:28:47.369Z,15.80
2022-12-23T01:31:17.155Z,16.40
2022-12-23T01:33:47.029Z,18.73
2022-12-23T01:36:17.770Z,16.67
2022-12-23T01:38:48.146Z,17.30
2022-12-23T01:41:50.314Z,18.35
2022-12-23T01:45:00.748Z,17.20
2022-12-23T01:47:40.283Z,18.92
2022-12-23T01:50:32.505Z,16.95
2022-12-23T01:53:29.491Z,18.08
2022-12-23T01:56:30.735Z,19.67
2022-12-23T01:59:38.177Z,17.17
2022-12-23T02:02:27.557Z,18.70
2022-12-23T02:05:00.354Z,19.40
2022-12-23T02:07:51.276Z,19.58
2022-12-23T02:10:49.187Z,17.65
2022-12-23T02:14:10.844Z,14.88
2022-12-23T02:17:02.351Z,17.75
2022-12-23T02:20:06.195Z,18.67
2022-12-23T02:23:13.490Z,17.55
2022-12-23T02:26:45.308Z,15.25
2022-12-23T02:30:06.164Z,16.15
2022-12-23T02:33:32.823Z,17.02
2022-12-23T02:36:34.096Z,17.08
2022-12-23T02:40:05.022Z,15.68
2022-12-23T02:43:14.015Z,16.08
2022-12-23T02:46:01.089Z,16.80
2022-12-23T02:49:03.644Z,16.88
2022-12-23T02:51:46.515Z,18.10
2022-12-23T02:54:48.658Z,17.63
2022-12-23T02:57:35.973Z,18.10
2022-12-23T03:00:08.324Z,17.30
2022-12-23T03:02:43.177Z,17.35
2022-12-23T03:05:43.377Z,16.80
2022-12-23T03:08:28.011Z,16.83
2022-12-23T03:11:07.396Z,16.30
2022-12-23T03:13:59.919Z,17.52
2022-12-23T03:17:12.607Z,18.15
2022-12-23T03:20:12.121Z,18.58
2022-12-23T03:23:55.243Z,17.77
2022-12-23T03:27:11.651Z,19.33
2022-12-23T03:29:57.638Z,19.77
2022-12-23T03:32:37.847Z,18.52
2022-12-23T03:35:14.184Z,19.35
2022-12-23T03:37:54.871Z,18.80
2022-12-23T03:40:41.623Z,17.20
2022-12-23T03:43:53.022Z,18.88
2022-12-23T03:46:39.239Z,18.92
2022-12-23T03:49:23.662Z,19.92
2022-12-23T03:52:20.776Z,18.63
2022-12-23T03:55:02.153Z,18.75
2022-12-23T03:57:51.042Z,18.65
2022-12-23T04:00:21.280Z,18.20
2022-12-23T04:03:36.315Z,19.65
2022-12-23T04:06:17.665Z,18.33
2022-12-23T04:08:52.499Z,19.52
2022-12-23T04:11:23.194Z,19.60
2022-12-23T04:13:54.289Z,17.83
2022-12-23T04:16:24.998Z,18.75
2022-12-23T04:18:56.046Z,19.38
2022-12-23T04:21:23.440Z,19.23
2022-12-23T04:23:51.926Z,16.92
2022-12-23T04:26:20.328Z,18.17
2022-12-23T04:28:48.782Z,18.95
2022-12-23T04:31:17.271Z,18.70
2022-12-23T04:33:45.667Z,20.00
2022-12-23T04:36:14.118Z,19.35
2022-12-23T04:38:43.345Z,18.58
2022-12-23T04:41:11.767Z,19.98
2022-12-23T04:43:40.274Z,19.25
2022-12-23T04:46:08.839Z,18.60
2022-12-23T04:48:37.211Z,20.15
2022-12-23T04:51:05.751Z,18.02
2022-12-23T04:53:37.081Z,18.10
2022-12-23T04:56:05.653Z,20.05
2022-12-23T04:58:34.107Z,18.52
2022-12-23T05:01:10.814Z,18.48
2022-12-23T05:06:11.506Z,15.35
2022-12-23T05:08:41.516Z,16.15
2022-12-23T05:11:11.581Z,17.02
2022-12-23T05:13:41.583Z,19.40
2022-12-23T05:16:11.737Z,18.40
2022-12-23T05:18:41.771Z,16.80
2022-12-23T05:21:11.924Z,15.43
2022-12-23T05:23:42.322Z,15.98
2022-12-23T05:26:12.422Z,19.05
2022-12-23T05:28:45.586Z,17.67
2022-12-23T05:31:17.333Z,17.00
2022-12-23T05:33:47.544Z,17.73
2022-12-23T05:36:17.594Z,18.00
2022-12-23T05:38:48.469Z,16.55
2022-12-23T05:41:17.406Z,17.98
2022-12-23T05:43:44.497Z,18.05
2022-12-23T05:46:13.030Z,17.60
2022-12-23T05:48:41.341Z,15.07
2022-12-23T05:51:09.732Z,16.35
2022-12-23T05:53:38.150Z,18.15
2022-12-23T05:56:07.760Z,15.98
2022-12-23T05:58:35.181Z,16.25
2022-12-23T06:01:05.088Z,16.45
2022-12-23T06:03:35.131Z,17.58
2022-12-23T06:06:03.376Z,16.02
2022-12-23T06:08:31.736Z,16.38
2022-12-23T06:11:00.126Z,16.25
2022-12-23T06:13:28.561Z,15.73
2022-12-23T06:15:57.014Z,16.48
2022-12-23T06:18:25.440Z,16.85
2022-12-23T06:20:53.793Z,13.75
2022-12-23T06:23:22.264Z,16.23
2022-12-23T06:25:50.741Z,13.52
2022-12-23T06:28:19.061Z,14.00
2022-12-23T06:30:54.799Z,12.88
2022-12-23T06:33:25.825Z,13.48
2022-12-23T06:35:55.864Z,14.07
2022-12-23T06:38:25.891Z,12.65
2022-12-23T06:40:56.003Z,12.32
2022-12-23T06:43:26.029Z,11.90
2022-12-23T06:45:56.106Z,12.10
2022-12-23T06:48:26.153Z,13.02
2022-12-23T06:50:56.202Z,11.68
2022-12-23T06:53:26.242Z,12.48
2022-12-23T06:56:04.331Z,12.85
2022-12-23T06:58:34.325Z,12.25
2022-12-23T07:01:04.650Z,14.13
2022-12-23T07:03:34.826Z,11.57
2022-12-23T07:06:05.398Z,12.63
2022-12-23T07:08:35.598Z,12.77
2022-12-23T07:11:06.133Z,11.93
2022-12-23T07:13:34.988Z,13.15
2022-12-23T07:16:09.805Z,12.20
2022-12-23T07:18:40.178Z,12.32
2022-12-23T07:21:19.709Z,12.70
2022-12-23T07:23:51.511Z,13.82
2022-12-23T07:26:21.577Z,12.57
2022-12-23T07:28:51.588Z,13.65
2022-12-23T07:31:19.149Z,14.98
2022-12-23T07:33:46.865Z,13.95
2022-12-23T07:36:16.556Z,14.40
2022-12-23T07:38:51.753Z,14.32
2022-12-23T07:41:21.015Z,15.07
2022-12-23T07:43:51.056Z,15.30
2022-12-23T07:46:21.345Z,16.45
2022-12-23T07:48:51.393Z,15.80
2022-12-23T07:51:21.526Z,14.38
2022-12-23T07:53:51.719Z,15.75
2022-12-23T07:56:22.153Z,16.95
2022-12-23T07:58:54.246Z,15.85
2022-12-23T08:01:23.589Z,16.25
2022-12-23T08:03:53.381Z,18.17
2022-12-23T08:06:23.153Z,15.65
2022-12-23T08:08:53.172Z,16.65
2022-12-23T08:11:21.667Z,17.05
2022-12-23T08:13:50.087Z,15.52
2022-12-23T08:16:19.056Z,15.63
2022-12-23T08:18:46.817Z,17.40
2022-12-23T08:21:20.077Z,16.23
2022-12-23T08:23:50.957Z,17.20
2022-12-23T08:26:23.466Z,14.85
2022-12-23T08:28:53.572Z,15.63
2022-12-23T08:31:32.119Z,15.07
2022-12-23T08:34:02.172Z,14.25
2022-12-23T08:36:36.220Z,16.05
2022-12-23T08:39:11.410Z,15.52
2022-12-23T08:41:47.254Z,14.02
2022-12-23T08:44:18.528Z,13.95
2022-12-23T08:46:47.248Z,14.57
2022-12-23T08:49:15.542Z,14.10
2022-12-23T08:51:44.512Z,14.43
2022-12-23T08:54:15.532Z,13.88
2022-12-23T08:56:45.547Z,14.60
2022-12-23T08:59:19.563Z,14.82
2022-12-23T09:01:50.090Z,13.80
2022-12-23T09:04:20.224Z,13.23
2022-12-23T09:06:50.370Z,13.75
2022-12-23T09:09:20.452Z,12.85
2022-12-23T09:11:48.140Z,13.18
2022-12-23T09:14:15.351Z,13.57
2022-12-23T09:16:45.403Z,12.73
2022-12-23T09:19:15.538Z,13.07
2022-12-23T09:21:45.633Z,11.98
2022-12-23T09:24:15.741Z,12.20
2022-12-23T09:26:45.840Z,11.40
2022-12-23T09:29:15.858Z,13.35
2022-12-23T09:31:46.015Z,12.02
2022-12-23T09:34:16.107Z,11.80
2022-12-23T09:36:48.041Z,11.93
2022-12-23T09:39:19.462Z,12.88
2022-12-23T09:42:27.367Z,12.57
2022-12-23T09:45:57.984Z,10.98
2022-12-23T09:48:45.529Z,10.90
2022-12-23T09:51:23.646Z,11.73
2022-12-23T09:54:31.411Z,10.32
2022-12-23T09:57:31.828Z,10.77
2022-12-23T10:00:09.766Z,10.25
2022-12-23T10:03:21.047Z,11.35
2022-12-23T10:06:20.020Z,9.90
2022-12-23T10:09:01.055Z,10.30
2022-12-23T10:11:40.815Z,9.18
2022-12-23T10:14:41.406Z,9.95
2022-12-23T10:17:38.320Z,10.23
2022-12-23T10:20:34.759Z,10.40
2022-12-23T10:23:27.661Z,9.02
2022-12-23T10:25:57.984Z,9.60
2022-12-23T10:28:29.676Z,10.07
2022-12-23T10:31:38.722Z,9.25
2022-12-23T10:35:02.019Z,9.25
2022-12-23T10:38:11.103Z,8.88
2022-12-23T10:41:09.580Z,10.43
2022-12-23T10:44:35.643Z,9.07
2022-12-23T10:47:38.752Z,9.20
2022-12-23T10:51:01.465Z,8.50
2022-12-23T10:53:43.112Z,8.90
2022-12-23T10:56:14.844Z,8.50
2022-12-23T10:58:51.275Z,8.32
2022-12-23T11:01:27.146Z,9.43
2022-12-23T11:04:17.905Z,9.85
2022-12-23T11:07:18.121Z,9.80
2022-12-23T11:10:04.050Z,10.10
2022-12-23T11:12:50.578Z,8.85
2022-12-23T11:15:35.399Z,8.77
2022-12-23T11:18:13.089Z,9.27
2022-12-23T11:21:02.557Z,8.80
2022-12-23T11:23:36.919Z,9.38
2022-12-23T11:26:18.447Z,9.60
2022-12-23T11:29:07.687Z,9.57
2022-12-23T11:31:38.540Z,9.13
2022-12-23T11:34:22.930Z,9.35
2022-12-23T11:37:06.938Z,9.57
2022-12-23T11:39:38.356Z,8.82
2022-12-23T11:42:24.587Z,8.85
2022-12-23T11:45:00.648Z,10.32
2022-12-23T11:47:41.486Z,10.45
2022-12-23T11:50:38.245Z,10.45
2022-12-23T11:53:21.749Z,9.23
2022-12-23T11:56:15.726Z,9.25
2022-12-23T11:59:03.663Z,9.93
2022-12-23T12:01:36.652Z,8.98
2022-12-23T12:04:20.608Z,9.32
2022-12-23T12:06:56.633Z,10.35
2022-12-23T12:09:32.146Z,10.07
2022-12-23T12:12:19.460Z,10.13
2022-12-23T12:14:58.904Z,10.32
2022-12-23T12:17:58.715Z,9.73
2022-12-23T12:20:39.550Z,11.48
2022-12-23T12:23:36.487Z,11.32
2022-12-23T12:26:25.255Z,10.40
2022-12-23T12:29:46.532Z,12.30
2022-12-23T12:35:44.273Z,11.00
2022-12-23T12:38:39.239Z,11.80
2022-12-23T12:41:32.723Z,11.30
2022-12-23T12:44:40.659Z,12.38
2022-12-23T12:47:56.850Z,12.18
2022-12-23T12:50:39.444Z,11.77
2022-12-23T12:53:22.385Z,12.23
2022-12-23T12:56:22.858Z,11.80
2022-12-23T12:58:53.002Z,11.70
2022-12-23T13:02:44.415Z,10.75
2022-12-23T13:06:07.795Z,11.00
2022-12-23T13:09:14.537Z,9.93
2022-12-23T13:13:05.834Z,10.77
2022-12-23T13:16:11.079Z,10.00
2022-12-23T13:19:08.827Z,10.40
2022-12-23T13:21:54.180Z,9.48
2022-12-23T13:25:04.142Z,8.63
2022-12-23T13:27:56.246Z,8.15
2022-12-23T13:30:49.184Z,6.85
2022-12-23T13:33:55.571Z,6.80
2022-12-23T13:37:26.211Z,7.28
2022-12-23T13:40:26.287Z,5.70
2022-12-23T13:43:18.707Z,6.53
2022-12-23T13:45:55.973Z,6.35
2022-12-23T13:48:57.951Z,7.38
2022-12-23T13:52:03.994Z,6.60
2022-12-23T13:55:10.252Z,8.02
2022-12-23T13:58:01.139Z,6.15
2022-12-23T14:00:35.033Z,8.20
2022-12-23T14:03:24.143Z,6.95
2022-12-23T14:05:54.352Z,7.30
2022-12-23T14:08:43.403Z,8.25
2022-12-23T14:11:29.534Z,7.63
2022-12-23T14:14:07.090Z,7.95
2022-12-23T14:17:20.287Z,7.90
2022-12-23T14:20:39.453Z,8.77
2022-12-23T14:24:14.801Z,8.02
2022-12-23T14:27:41.359Z,8.10
2022-12-23T14:30:47.015Z,8.23
2022-12-23T14:33:33.454Z,8.10
2022-12-23T14:36:26.888Z,7.88
2022-12-23T14:39:11.956Z,8.55
2022-12-23T14:41:57.580Z,9.23
2022-12-23T14:44:38.533Z,10.00
2022-12-23T14:47:40.624Z,8.13
2022-12-23T14:50:42.111Z,8.88
2022-12-23T14:53:32.356Z,7.20
2022-12-23T14:56:42.039Z,8.25
2022-12-23T14:59:51.490Z,8.57
2022-12-23T15:02:38.894Z,8.90
2022-12-23T15:05:09.971Z,8.40
2022-12-23T15:07:47.532Z,9.23
2022-12-23T15:10:26.990Z,8.68
2022-12-23T15:13:06.263Z,8.50
2022-12-23T15:15:36.329Z,9.18
2022-12-23T15:18:13.442Z,8.55
2022-12-23T15:20:43.535Z,8.52
2022-12-23T15:23:17.997Z,10.20
2022-12-23T15:25:51.408Z,8.98
2022-12-23T15:28:36.253Z,10.23
2022-12-23T15:31:25.783Z,8.45
2022-12-23T15:34:03.589Z,8.40
2022-12-23T15:36:37.316Z,10.65
2022-12-23T15:39:19.337Z,10.43
2022-12-23T15:41:49.425Z,9.90
2022-12-23T15:44:35.871Z,9.93
2022-12-23T15:47:29.603Z,10.38
2022-12-23T15:50:03.264Z,10.35
2022-12-23T15:52:33.204Z,9.95
2022-12-23T15:55:22.346Z,10.25
2022-12-23T15:57:53.216Z,9.27
2022-12-23T16:00:57.692Z,9.10
2022-12-23T16:04:01.080Z,8.55
2022-12-23T16:06:36.524Z,10.02
2022-12-23T16:09:13.080Z,9.82
2022-12-23T16:12:23.199Z,9.40
2022-12-23T16:14:59.134Z,9.13
2022-12-23T16:17:37.353Z,8.50
2022-12-23T16:20:21.272Z,10.05
2022-12-23T16:22:56.602Z,9.40
2022-12-23T16:25:31.712Z,8.15
2022-12-23T16:28:06.887Z,8.43
2022-12-23T16:30:43.014Z,7.80
2022-12-23T16:33:47.667Z,8.25
2022-12-23T16:36:26.351Z,7.43
2022-12-23T16:39:07.327Z,8.02
2022-12-23T16:41:37.669Z,7.00
2022-12-23T16:44:07.979Z,7.15
2022-12-23T16:46:45.723Z,6.70
2022-12-23T16:49:24.394Z,8.15
2022-12-23T16:51:57.028Z,7.72
2022-12-23T16:54:27.061Z,10.75
2022-12-23T16:56:58.159Z,11.68
2022-12-23T16:59:28.291Z,17.17
2022-12-23T17:02:03.175Z,13.00
2022-12-23T17:04:33.604Z,12.60
2022-12-23T17:07:12.286Z,10.48
2022-12-23T17:09:42.293Z,10.85
2022-12-23T17:12:17.743Z,12.05
2022-12-23T17:14:47.786Z,16.08
2022-12-23T17:17:18.509Z,14.20
2022-12-23T17:19:48.578Z,16.25
2022-12-23T17:22:19.217Z,14.90
2022-12-23T17:24:49.296Z,17.55
2022-12-23T17:27:20.882Z,16.83
2022-12-23T17:29:51.107Z,17.23
2022-12-23T17:32:19.532Z,17.23
2022-12-23T17:34:49.589Z,21.38
2022-12-23T17:37:23.026Z,19.10
2022-12-23T17:39:52.662Z,19.25
2022-12-23T17:42:25.997Z,18.90
2022-12-23T17:44:54.211Z,18.05
2022-12-23T17:47:23.150Z,20.85
2022-12-23T17:49:51.076Z,16.88
2022-12-23T17:52:24.398Z,16.33
2022-12-23T17:54:53.135Z,16.73
2022-12-23T17:57:27.144Z,16.20
2022-12-23T17:59:56.949Z,17.70
2022-12-23T18:02:33.200Z,16.25
2022-12-23T18:05:28.468Z,17.52
2022-12-23T18:08:00.630Z,17.42
2022-12-23T18:10:39.478Z,16.45
2022-12-23T18:13:19.512Z,16.88
2022-12-23T18:15:50.718Z,15.77
2022-12-23T18:18:37.784Z,15.63
2022-12-23T18:21:29.101Z,15.95
2022-12-23T18:24:00.586Z,17.17
2022-12-23T18:26:30.816Z,16.38
2022-12-23T18:29:00.814Z,15.95
2022-12-23T18:31:31.418Z,17.73
2022-12-23T18:34:01.473Z,17.02
2022-12-23T18:36:34.034Z,17.30
2022-12-23T18:39:04.230Z,17.98
2022-12-23T18:41:34.310Z,18.27
2022-12-23T18:44:04.728Z,17.38
2022-12-23T18:46:34.782Z,16.13
2022-12-23T18:49:04.783Z,17.60
2022-12-23T18:51:34.787Z,15.95
2022-12-23T18:54:03.247Z,15.55
2022-12-23T18:56:31.653Z,19.02
2022-12-23T18:59:00.098Z,16.27
2022-12-23T19:01:28.853Z,17.65
2022-12-23T19:03:56.959Z,17.58
2022-12-23T19:06:26.822Z,18.20
2022-12-23T19:08:56.852Z,19.10
2022-12-23T19:11:25.312Z,18.58
2022-12-23T19:13:53.652Z,17.13
2022-12-23T19:16:22.606Z,17.70
2022-12-23T19:18:51.201Z,18.55
2022-12-23T19:21:19.650Z,18.90
2022-12-23T19:23:47.346Z,19.55
2022-12-23T19:26:15.974Z,20.23
2022-12-23T19:28:44.294Z,19.55
2022-12-23T19:31:16.690Z,19.90
2022-12-23T19:33:47.747Z,19.27
2022-12-23T19:36:23.035Z,20.17
2022-12-23T19:38:53.323Z,19.05
2022-12-23T19:41:23.241Z,20.08
2022-12-23T19:43:53.048Z,19.65
2022-12-23T19:46:23.130Z,20.42
2022-12-23T19:48:53.723Z,21.67
2022-12-23T19:51:23.592Z,21.80
2022-12-23T19:53:53.778Z,21.20
2022-12-23T19:56:23.581Z,22.45
2022-12-23T19:58:53.484Z,20.95
2022-12-23T20:01:26.863Z,21.33
2022-12-23T20:03:57.403Z,21.52
2022-12-23T20:06:34.930Z,20.40
2022-12-23T20:09:07.841Z,19.17
2022-12-23T20:11:43.533Z,19.10
2022-12-23T20:14:15.049Z,20.15
2022-12-23T20:16:43.801Z,20.65
2022-12-23T20:19:13.381Z,20.15
2022-12-23T20:21:41.147Z,19.30
2022-12-23T20:24:10.488Z,19.20
2022-12-23T20:26:42.412Z,21.67
2022-12-23T20:29:11.511Z,21.05
2022-12-23T20:31:41.443Z,20.15
2022-12-23T20:34:17.348Z,23.20
2022-12-23T20:36:47.320Z,23.35
2022-12-23T20:39:14.439Z,20.95
2022-12-23T20:41:42.945Z,20.25
2022-12-23T20:47:01.346Z,23.65
2022-12-23T20:49:31.368Z,23.58
2022-12-23T20:52:01.627Z,21.98
2022-12-23T20:54:33.567Z,24.10
2022-12-23T20:57:04.252Z,23.58
2022-12-23T20:59:34.228Z,22.70
2022-12-23T21:02:04.149Z,22.67
2022-12-23T21:04:34.054Z,22.92
2022-12-23T21:07:03.930Z,20.73
2022-12-23T21:09:35.074Z,19.88
2022-12-23T21:12:05.327Z,20.65
2022-12-23T21:14:34.990Z,23.05
2022-12-23T21:17:04.910Z,21.45
2022-12-23T21:19:34.971Z,21.58
2022-12-23T21:22:04.975Z,23.45
2022-12-23T21:24:34.890Z,22.08
2022-12-23T21:27:04.801Z,21.65
2022-12-23T21:29:34.543Z,20.38
2022-12-23T21:32:04.668Z,21.90
2022-12-23T21:34:34.599Z,24.40
2022-12-23T21:37:04.361Z,20.98
2022-12-23T21:39:34.309Z,21.83
2022-12-23T21:42:04.938Z,22.83
2022-12-23T21:44:34.626Z,22.45
2022-12-23T21:47:04.456Z,19.10
2022-12-23T21:49:32.880Z,21.83
2022-12-23T21:52:02.187Z,20.48
2022-12-23T21:54:29.417Z,19.20
2022-12-23T21:56:57.835Z,19.65
2022-12-23T21:59:32.782Z,18.33
2022-12-23T22:04:35.046Z,18.92
2022-12-23T22:07:04.936Z,16.98
2022-12-23T22:09:34.704Z,16.23
2022-12-23T22:12:06.267Z,17.40
2022-12-23T22:14:36.748Z,17.98
2022-12-23T22:17:06.446Z,17.30
2022-12-23T22:19:36.301Z,19.67
2022-12-23T22:22:06.023Z,18.48
2022-12-23T22:24:35.843Z,20.27
2022-12-23T22:27:05.558Z,18.02
2022-12-23T22:29:35.335Z,16.90
2022-12-23T22:32:05.479Z,17.08
2022-12-23T22:34:35.485Z,16.67
2022-12-23T22:37:05.273Z,17.52
2022-12-23T22:39:35.101Z,16.90
2022-12-23T22:42:08.091Z,17.65
2022-12-23T22:44:37.714Z,16.30
2022-12-23T22:47:07.719Z,16.67
2022-12-23T22:49:37.640Z,18.25
2022-12-23T22:52:07.651Z,16.20
2022-12-23T22:54:37.373Z,17.75
2022-12-23T22:57:07.508Z,15.43
2022-12-23T22:59:38.151Z,14.75
2022-12-23T23:02:08.271Z,13.75
2022-12-23T23:04:37.988Z,14.02
2022-12-23T23:07:08.286Z,14.20
2022-12-23T23:09:37.977Z,12.60
2022-12-23T23:12:10.697Z,13.95
2022-12-23T23:14:53.221Z,13.13
2022-12-23T23:17:28.851Z,13.25
2022-12-23T23:19:59.289Z,11.80
2022-12-23T23:22:27.385Z,13.55
2022-12-23T23:24:55.753Z,12.30
2022-12-23T23:27:24.166Z,12.70
2022-12-23T23:29:52.576Z,11.27
2022-12-23T23:32:21.050Z,11.60
2022-12-23T23:34:49.393Z,11.23
2022-12-23T23:37:17.855Z,11.57
2022-12-23T23:39:46.216Z,11.65
2022-12-23T23:42:19.530Z,11.20
2022-12-23T23:44:49.457Z,11.07
2022-12-23T23:47:19.176Z,11.88
2022-12-23T23:49:49.133Z,11.98
2022-12-23T23:52:18.874Z,11.63
2022-12-23T23:54:48.689Z,11.05
2022-12-23T23:57:18.529Z,11.60
2022-12-23T23:59:49.012Z,9.80
